sensor_id;sensor_type;location;lat;lon;timestamp;pressure;altitude;pressure_sealevel;temperature;humidity
72685;BME280;61365;52.162;4.500;2022-10-16T00:01:37;100803.31;;;13.88;76.18
72685;BME280;61365;52.162;4.500;2022-10-16T00:04:04;100797.22;;;13.84;76.37
72685;BME280;61365;52.162;4.500;2022-10-16T00:06:31;100808.81;;;13.74;75.75
72685;BME280;61365;52.162;4.500;2022-10-16T00:08:58;100797.31;;;13.76;75.79
72685;BME280;61365;52.162;4.500;2022-10-16T00:11:30;100796.38;;;13.82;75.51
72685;BME280;61365;52.162;4.500;2022-10-16T00:14:06;100799.03;;;13.82;75.58
72685;BME280;61365;52.162;4.500;2022-10-16T00:16:36;100803.38;;;13.85;75.59
72685;BME280;61365;52.162;4.500;2022-10-16T00:19:02;100798.03;;;13.88;75.40
72685;BME280;61365;52.162;4.500;2022-10-16T00:21:30;100803.22;;;13.94;74.15
72685;BME280;61365;52.162;4.500;2022-10-16T00:24:04;100803.97;;;14.04;75.71
72685;BME280;61365;52.162;4.500;2022-10-16T00:26:37;100799.66;;;13.96;74.70
72685;BME280;61365;52.162;4.500;2022-10-16T00:29:05;100797.78;;;14.03;74.48
72685;BME280;61365;52.162;4.500;2022-10-16T00:31:32;100790.00;;;13.95;75.32
72685;BME280;61365;52.162;4.500;2022-10-16T00:33:58;100786.50;;;13.95;74.31
72685;BME280;61365;52.162;4.500;2022-10-16T00:36:26;100783.88;;;13.93;74.91
72685;BME280;61365;52.162;4.500;2022-10-16T00:38:55;100791.69;;;14.00;75.50
72685;BME280;61365;52.162;4.500;2022-10-16T00:41:24;100787.53;;;13.85;75.45
72685;BME280;61365;52.162;4.500;2022-10-16T00:46:26;100796.34;;;13.84;75.56
72685;BME280;61365;52.162;4.500;2022-10-16T00:49:06;100792.91;;;13.80;75.67
72685;BME280;61365;52.162;4.500;2022-10-16T00:51:49;100794.75;;;13.73;75.68
72685;BME280;61365;52.162;4.500;2022-10-16T00:54:24;100799.22;;;13.66;76.11
72685;BME280;61365;52.162;4.500;2022-10-16T00:56:55;100791.19;;;13.76;75.60
72685;BME280;61365;52.162;4.500;2022-10-16T00:59:29;100799.09;;;13.76;76.09
72685;BME280;61365;52.162;4.500;2022-10-16T01:01:58;100804.38;;;13.76;76.59
72685;BME280;61365;52.162;4.500;2022-10-16T01:04:26;100805.31;;;13.72;77.52
72685;BME280;61365;52.162;4.500;2022-10-16T01:12:29;100810.59;;;13.72;76.66
72685;BME280;61365;52.162;4.500;2022-10-16T01:15:34;100811.63;;;13.61;78.01
72685;BME280;61365;52.162;4.500;2022-10-16T01:18:18;100807.25;;;13.59;77.69
72685;BME280;61365;52.162;4.500;2022-10-16T01:24:06;100810.69;;;13.64;78.35
72685;BME280;61365;52.162;4.500;2022-10-16T01:27:05;100813.59;;;13.44;78.52
72685;BME280;61365;52.162;4.500;2022-10-16T01:29:49;100806.56;;;13.46;79.29
72685;BME280;61365;52.162;4.500;2022-10-16T01:40:26;100809.38;;;13.29;79.90
72685;BME280;61365;52.162;4.500;2022-10-16T01:43:02;100805.84;;;13.30;80.78
72685;BME280;61365;52.162;4.500;2022-10-16T01:45:32;100806.72;;;13.30;80.67
72685;BME280;61365;52.162;4.500;2022-10-16T01:48:02;100815.53;;;13.28;80.87
72685;BME280;61365;52.162;4.500;2022-10-16T01:50:37;100812.00;;;13.29;80.85
72685;BME280;61365;52.162;4.500;2022-10-16T01:53:07;100819.06;;;13.28;80.84
72685;BME280;61365;52.162;4.500;2022-10-16T01:55:40;100809.50;;;13.19;82.14
72685;BME280;61365;52.162;4.500;2022-10-16T01:58:12;100812.16;;;13.16;81.98
72685;BME280;61365;52.162;4.500;2022-10-16T02:00:43;100816.56;;;13.16;81.88
72685;BME280;61365;52.162;4.500;2022-10-16T02:03:15;100821.84;;;13.14;82.08
72685;BME280;61365;52.162;4.500;2022-10-16T02:05:51;100825.28;;;13.23;81.97
72685;BME280;61365;52.162;4.500;2022-10-16T02:08:23;100831.41;;;13.23;81.94
72685;BME280;61365;52.162;4.500;2022-10-16T02:10:51;100825.22;;;13.27;82.01
72685;BME280;61365;52.162;4.500;2022-10-16T02:13:23;100823.56;;;13.18;82.75
72685;BME280;61365;52.162;4.500;2022-10-16T02:15:53;100826.94;;;13.30;81.96
72685;BME280;61365;52.162;4.500;2022-10-16T02:18:20;100834.06;;;13.20;82.94
72685;BME280;61365;52.162;4.500;2022-10-16T02:20:51;100828.84;;;13.17;83.50
72685;BME280;61365;52.162;4.500;2022-10-16T02:23:29;100826.19;;;13.17;83.10
72685;BME280;61365;52.162;4.500;2022-10-16T02:26:04;100833.28;;;13.12;84.17
72685;BME280;61365;52.162;4.500;2022-10-16T02:28:42;100836.91;;;13.03;83.81
72685;BME280;61365;52.162;4.500;2022-10-16T02:31:18;100839.56;;;13.00;84.10
72685;BME280;61365;52.162;4.500;2022-10-16T02:33:52;100835.28;;;12.93;84.51
72685;BME280;61365;52.162;4.500;2022-10-16T02:36:22;100840.50;;;12.96;84.46
72685;BME280;61365;52.162;4.500;2022-10-16T02:38:50;100842.25;;;12.95;84.34
72685;BME280;61365;52.162;4.500;2022-10-16T02:41:21;100836.25;;;12.82;84.44
72685;BME280;61365;52.162;4.500;2022-10-16T02:43:48;100846.78;;;12.84;84.41
72685;BME280;61365;52.162;4.500;2022-10-16T02:46:16;100848.56;;;12.80;85.01
72685;BME280;61365;52.162;4.500;2022-10-16T02:48:43;100844.16;;;12.82;85.12
72685;BME280;61365;52.162;4.500;2022-10-16T02:51:09;100853.88;;;12.75;85.02
72685;BME280;61365;52.162;4.500;2022-10-16T02:53:36;100855.59;;;12.78;85.19
72685;BME280;61365;52.162;4.500;2022-10-16T02:56:02;100856.44;;;12.83;84.92
72685;BME280;61365;52.162;4.500;2022-10-16T02:58:28;100853.81;;;12.82;85.00
72685;BME280;61365;52.162;4.500;2022-10-16T03:00:55;100848.47;;;12.88;84.88
72685;BME280;61365;52.162;4.500;2022-10-16T03:03:21;100847.66;;;12.81;85.19
72685;BME280;61365;52.162;4.500;2022-10-16T03:05:48;100845.66;;;13.06;83.97
72685;BME280;61365;52.162;4.500;2022-10-16T03:08:14;100840.59;;;12.86;84.81
72685;BME280;61365;52.162;4.500;2022-10-16T03:10:41;100845.94;;;12.79;85.50
72685;BME280;61365;52.162;4.500;2022-10-16T03:13:07;100846.84;;;12.77;85.50
72685;BME280;61365;52.162;4.500;2022-10-16T03:15:33;100853.00;;;12.76;86.01
72685;BME280;61365;52.162;4.500;2022-10-16T03:18:00;100846.72;;;12.88;85.67
72685;BME280;61365;52.162;4.500;2022-10-16T03:20:26;100845.97;;;12.74;85.52
72685;BME280;61365;52.162;4.500;2022-10-16T03:22:52;100845.91;;;12.83;85.29
72685;BME280;61365;52.162;4.500;2022-10-16T03:25:19;100851.16;;;12.83;85.06
72685;BME280;61365;52.162;4.500;2022-10-16T03:27:45;100851.28;;;12.72;86.08
72685;BME280;61365;52.162;4.500;2022-10-16T03:30:12;100857.44;;;12.71;86.35
72685;BME280;61365;52.162;4.500;2022-10-16T03:32:38;100867.94;;;12.74;86.15
72685;BME280;61365;52.162;4.500;2022-10-16T03:35:05;100872.28;;;12.79;85.87
72685;BME280;61365;52.162;4.500;2022-10-16T03:37:31;100865.28;;;12.77;86.33
72685;BME280;61365;52.162;4.500;2022-10-16T03:39:58;100871.41;;;12.80;86.07
72685;BME280;61365;52.162;4.500;2022-10-16T03:42:25;100873.97;;;12.86;85.46
72685;BME280;61365;52.162;4.500;2022-10-16T03:44:51;100874.81;;;12.88;85.83
72685;BME280;61365;52.162;4.500;2022-10-16T03:47:17;100873.78;;;13.03;85.59
72685;BME280;61365;52.162;4.500;2022-10-16T03:49:48;100877.28;;;13.05;84.90
72685;BME280;61365;52.162;4.500;2022-10-16T03:52:14;100881.72;;;13.01;85.08
72685;BME280;61365;52.162;4.500;2022-10-16T03:54:41;100872.91;;;13.05;84.97
72685;BME280;61365;52.162;4.500;2022-10-16T03:57:07;100883.44;;;13.04;85.60
72685;BME280;61365;52.162;4.500;2022-10-16T03:59:34;100893.88;;;13.12;84.55
72685;BME280;61365;52.162;4.500;2022-10-16T04:02:00;100892.19;;;13.06;84.45
72685;BME280;61365;52.162;4.500;2022-10-16T04:04:26;100901.84;;;13.07;84.46
72685;BME280;61365;52.162;4.500;2022-10-16T04:06:52;100912.44;;;13.02;84.43
72685;BME280;61365;52.162;4.500;2022-10-16T04:09:19;100905.41;;;13.04;84.47
72685;BME280;61365;52.162;4.500;2022-10-16T04:11:45;100905.38;;;13.07;84.45
72685;BME280;61365;52.162;4.500;2022-10-16T04:14:11;100903.63;;;13.06;84.34
72685;BME280;61365;52.162;4.500;2022-10-16T04:16:38;100902.72;;;13.06;84.71
72685;BME280;61365;52.162;4.500;2022-10-16T04:19:04;100915.06;;;13.01;84.79
72685;BME280;61365;52.162;4.500;2022-10-16T04:21:30;100907.94;;;13.12;84.90
72685;BME280;61365;52.162;4.500;2022-10-16T04:23:57;100914.00;;;13.20;84.95
72685;BME280;61365;52.162;4.500;2022-10-16T04:26:23;100923.78;;;13.11;84.37
72685;BME280;61365;52.162;4.500;2022-10-16T04:28:49;100912.28;;;13.19;84.27
72685;BME280;61365;52.162;4.500;2022-10-16T04:31:16;100922.59;;;13.38;83.43
72685;BME280;61365;52.162;4.500;2022-10-16T04:33:43;100930.72;;;13.18;84.50
72685;BME280;61365;52.162;4.500;2022-10-16T04:36:09;100934.16;;;13.26;84.26
72685;BME280;61365;52.162;4.500;2022-10-16T04:38:35;100944.78;;;13.18;84.78
72685;BME280;61365;52.162;4.500;2022-10-16T04:41:03;100950.19;;;13.04;85.92
72685;BME280;61365;52.162;4.500;2022-10-16T04:43:30;100949.34;;;12.99;86.07
72685;BME280;61365;52.162;4.500;2022-10-16T04:45:56;100966.06;;;12.97;86.61
72685;BME280;61365;52.162;4.500;2022-10-16T04:48:22;100965.13;;;13.01;86.90
72685;BME280;61365;52.162;4.500;2022-10-16T04:50:49;100964.22;;;13.06;87.11
72685;BME280;61365;52.162;4.500;2022-10-16T04:53:15;100962.53;;;12.98;87.93
72685;BME280;61365;52.162;4.500;2022-10-16T04:55:42;100975.66;;;13.02;87.31
72685;BME280;61365;52.162;4.500;2022-10-16T04:58:09;100981.03;;;12.91;88.38
72685;BME280;61365;52.162;4.500;2022-10-16T05:00:36;100973.97;;;12.92;88.25
72685;BME280;61365;52.162;4.500;2022-10-16T05:03:02;100983.72;;;12.82;89.26
72685;BME280;61365;52.162;4.500;2022-10-16T05:05:31;100986.38;;;12.79;89.38
72685;BME280;61365;52.162;4.500;2022-10-16T05:07:58;100986.34;;;12.82;89.97
72685;BME280;61365;52.162;4.500;2022-10-16T05:10:24;100979.34;;;12.78;89.93
72685;BME280;61365;52.162;4.500;2022-10-16T05:12:50;100982.88;;;12.77;89.88
72685;BME280;61365;52.162;4.500;2022-10-16T05:15:17;100994.31;;;12.77;89.97
72685;BME280;61365;52.162;4.500;2022-10-16T05:17:44;101010.09;;;12.81;90.54
72685;BME280;61365;52.162;4.500;2022-10-16T05:20:11;101000.41;;;12.83;90.27
72685;BME280;61365;52.162;4.500;2022-10-16T05:22:38;101008.38;;;12.73;90.63
72685;BME280;61365;52.162;4.500;2022-10-16T05:25:04;101014.41;;;12.88;91.11
72685;BME280;61365;52.162;4.500;2022-10-16T05:27:31;101014.53;;;12.71;91.24
72685;BME280;61365;52.162;4.500;2022-10-16T05:29:57;101018.88;;;12.78;91.75
72685;BME280;61365;52.162;4.500;2022-10-16T05:32:24;101011.81;;;12.80;91.99
72685;BME280;61365;52.162;4.500;2022-10-16T05:34:50;101025.97;;;12.68;93.01
72685;BME280;61365;52.162;4.500;2022-10-16T05:37:17;101029.56;;;12.58;93.89
72685;BME280;61365;52.162;4.500;2022-10-16T05:39:43;101030.38;;;12.65;94.36
72685;BME280;61365;52.162;4.500;2022-10-16T05:42:09;101042.56;;;12.78;92.97
72685;BME280;61365;52.162;4.500;2022-10-16T05:44:36;101045.28;;;12.69;94.22
72685;BME280;61365;52.162;4.500;2022-10-16T05:47:02;101041.78;;;12.67;94.55
72685;BME280;61365;52.162;4.500;2022-10-16T05:49:29;101034.75;;;12.66;94.03
72685;BME280;61365;52.162;4.500;2022-10-16T05:51:56;101028.69;;;12.51;94.58
72685;BME280;61365;52.162;4.500;2022-10-16T05:54:22;101022.63;;;12.40;95.24
72685;BME280;61365;52.162;4.500;2022-10-16T05:56:48;101028.72;;;12.46;95.44
72685;BME280;61365;52.162;4.500;2022-10-16T05:59:15;101021.72;;;12.44;95.24
72685;BME280;61365;52.162;4.500;2022-10-16T06:01:41;101036.72;;;12.31;95.53
72685;BME280;61365;52.162;4.500;2022-10-16T06:04:08;101028.75;;;12.45;95.83
72685;BME280;61365;52.162;4.500;2022-10-16T06:06:35;101039.28;;;12.40;95.13
72685;BME280;61365;52.162;4.500;2022-10-16T06:09:03;101030.50;;;12.41;95.33
72685;BME280;61365;52.162;4.500;2022-10-16T06:11:31;101053.31;;;12.42;95.07
72685;BME280;61365;52.162;4.500;2022-10-16T06:14:00;101042.81;;;12.38;95.31
72685;BME280;61365;52.162;4.500;2022-10-16T06:16:36;101052.50;;;12.34;95.47
72685;BME280;61365;52.162;4.500;2022-10-16T06:19:04;101048.97;;;12.35;95.15
72685;BME280;61365;52.162;4.500;2022-10-16T06:21:32;101057.72;;;12.37;94.77
72685;BME280;61365;52.162;4.500;2022-10-16T06:23:58;101053.31;;;12.42;94.31
72685;BME280;61365;52.162;4.500;2022-10-16T06:26:27;101057.72;;;12.40;94.10
72685;BME280;61365;52.162;4.500;2022-10-16T06:28:56;101062.03;;;12.57;93.55
72685;BME280;61365;52.162;4.500;2022-10-16T06:31:23;101069.97;;;12.46;93.47
72685;BME280;61365;52.162;4.500;2022-10-16T06:33:53;101072.56;;;12.51;93.80
72685;BME280;61365;52.162;4.500;2022-10-16T06:36:20;101078.69;;;12.54;93.27
72685;BME280;61365;52.162;4.500;2022-10-16T06:38:47;101076.06;;;12.54;92.77
72685;BME280;61365;52.162;4.500;2022-10-16T06:41:16;101083.03;;;12.63;91.72
72685;BME280;61365;52.162;4.500;2022-10-16T06:43:44;101077.75;;;12.63;91.87
72685;BME280;61365;52.162;4.500;2022-10-16T06:46:13;101077.75;;;12.63;91.88
72685;BME280;61365;52.162;4.500;2022-10-16T06:48:41;101095.31;;;12.69;91.41
72685;BME280;61365;52.162;4.500;2022-10-16T06:51:09;101095.31;;;12.66;91.77
72685;BME280;61365;52.162;4.500;2022-10-16T06:53:42;101104.09;;;12.68;90.78
72685;BME280;61365;52.162;4.500;2022-10-16T06:56:16;101102.34;;;12.67;90.71
72685;BME280;61365;52.162;4.500;2022-10-16T06:58:44;101102.38;;;12.59;91.32
72685;BME280;61365;52.162;4.500;2022-10-16T07:01:12;101104.94;;;12.71;90.67
72685;BME280;61365;52.162;4.500;2022-10-16T07:03:40;101112.84;;;12.65;90.44
72685;BME280;61365;52.162;4.500;2022-10-16T07:06:10;101107.66;;;12.59;91.15
72685;BME280;61365;52.162;4.500;2022-10-16T07:08:39;101121.69;;;12.55;91.11
72685;BME280;61365;52.162;4.500;2022-10-16T07:11:10;101130.47;;;12.60;90.90
72685;BME280;61365;52.162;4.500;2022-10-16T07:13:42;101140.00;;;12.78;90.56
72685;BME280;61365;52.162;4.500;2022-10-16T07:16:16;101139.88;;;13.00;89.89
72685;BME280;61365;52.162;4.500;2022-10-16T07:18:44;101146.69;;;13.33;88.49
72685;BME280;61365;52.162;4.500;2022-10-16T07:21:18;101153.59;;;13.53;87.74
72685;BME280;61365;52.162;4.500;2022-10-16T07:23:58;101153.38;;;13.76;86.20
72685;BME280;61365;52.162;4.500;2022-10-16T07:26:26;101161.03;;;14.06;85.06
72685;BME280;61365;52.162;4.500;2022-10-16T07:28:56;101175.09;;;14.03;84.46
72685;BME280;61365;52.162;4.500;2022-10-16T07:31:23;101184.63;;;14.18;84.86
72685;BME280;61365;52.162;4.500;2022-10-16T07:33:50;101191.47;;;14.36;84.58
72685;BME280;61365;52.162;4.500;2022-10-16T07:36:18;101192.19;;;14.52;83.05
72685;BME280;61365;52.162;4.500;2022-10-16T07:38:46;101194.00;;;14.47;82.52
72685;BME280;61365;52.162;4.500;2022-10-16T07:41:15;101202.78;;;14.49;82.61
72685;BME280;61365;52.162;4.500;2022-10-16T07:43:47;101210.56;;;14.60;82.77
72685;BME280;61365;52.162;4.500;2022-10-16T07:46:16;101205.19;;;14.73;82.40
72685;BME280;61365;52.162;4.500;2022-10-16T07:48:45;101208.63;;;14.78;81.43
72685;BME280;61365;52.162;4.500;2022-10-16T07:51:18;101209.34;;;14.92;81.58
72685;BME280;61365;52.162;4.500;2022-10-16T07:53:46;101208.19;;;15.12;81.03
72685;BME280;61365;52.162;4.500;2022-10-16T07:56:14;101214.06;;;15.34;80.48
72685;BME280;61365;52.162;4.500;2022-10-16T07:58:41;101216.19;;;15.65;79.16
72685;BME280;61365;52.162;4.500;2022-10-16T08:01:09;101230.50;;;15.53;78.67
72685;BME280;61365;52.162;4.500;2022-10-16T08:03:41;101238.00;;;15.81;77.42
72685;BME280;61365;52.162;4.500;2022-10-16T08:06:09;101242.19;;;15.96;76.88
72685;BME280;61365;52.162;4.500;2022-10-16T08:08:36;101246.47;;;16.03;76.53
72685;BME280;61365;52.162;4.500;2022-10-16T08:11:02;101241.47;;;15.88;76.97
72685;BME280;61365;52.162;4.500;2022-10-16T08:13:31;101246.38;;;16.10;76.21
72685;BME280;61365;52.162;4.500;2022-10-16T08:15:58;101249.75;;;16.18;76.31
72685;BME280;61365;52.162;4.500;2022-10-16T08:18:25;101262.28;;;16.08;76.34
72685;BME280;61365;52.162;4.500;2022-10-16T08:20:56;101246.84;;;16.32;75.38
72685;BME280;61365;52.162;4.500;2022-10-16T08:23:24;101247.53;;;15.95;75.77
72685;BME280;61365;52.162;4.500;2022-10-16T08:25:53;101261.47;;;16.03;76.44
72685;BME280;61365;52.162;4.500;2022-10-16T08:28:21;101261.78;;;16.38;75.68
72685;BME280;61365;52.162;4.500;2022-10-16T08:30:49;101263.97;;;16.61;74.26
72685;BME280;61365;52.162;4.500;2022-10-16T08:33:15;101273.28;;;16.35;74.00
72685;BME280;61365;52.162;4.500;2022-10-16T08:35:41;101280.44;;;15.73;77.70
72685;BME280;61365;52.162;4.500;2022-10-16T08:38:07;101276.72;;;15.88;76.96
72685;BME280;61365;52.162;4.500;2022-10-16T08:40:36;101278.38;;;15.94;77.07
72685;BME280;61365;52.162;4.500;2022-10-16T08:43:31;101286.31;;;15.94;76.11
72685;BME280;61365;52.162;4.500;2022-10-16T08:46:25;101290.38;;;16.17;77.10
72685;BME280;61365;52.162;4.500;2022-10-16T08:49:02;101291.31;;;16.63;74.76
72685;BME280;61365;52.162;4.500;2022-10-16T08:51:36;101306.81;;;16.38;76.03
72685;BME280;61365;52.162;4.500;2022-10-16T08:54:05;101308.56;;;16.37;75.49
72685;BME280;61365;52.162;4.500;2022-10-16T08:56:37;101310.34;;;16.35;75.70
72685;BME280;61365;52.162;4.500;2022-10-16T08:59:06;101317.63;;;16.24;75.92
72685;BME280;61365;52.162;4.500;2022-10-16T09:01:47;101320.34;;;16.20;75.86
72685;BME280;61365;52.162;4.500;2022-10-16T09:07:17;101327.81;;;16.48;75.05
72685;BME280;61365;52.162;4.500;2022-10-16T09:10:26;101344.53;;;16.50;75.13
72685;BME280;61365;52.162;4.500;2022-10-16T09:13:19;101343.34;;;16.67;74.38
72685;BME280;61365;52.162;4.500;2022-10-16T09:19:02;101346.91;;;16.66;74.88
72685;BME280;61365;52.162;4.500;2022-10-16T09:21:43;101349.50;;;17.16;72.73
72685;BME280;61365;52.162;4.500;2022-10-16T09:24:16;101348.06;;;17.44;73.29
72685;BME280;61365;52.162;4.500;2022-10-16T09:26:45;101342.44;;;17.58;71.87
72685;BME280;61365;52.162;4.500;2022-10-16T09:29:16;101344.19;;;17.59;70.92
72685;BME280;61365;52.162;4.500;2022-10-16T09:31:47;101345.66;;;17.72;71.08
72685;BME280;61365;52.162;4.500;2022-10-16T09:34:30;101341.72;;;17.90;70.07
72685;BME280;61365;52.162;4.500;2022-10-16T09:37:03;101348.06;;;18.21;69.11
72685;BME280;61365;52.162;4.500;2022-10-16T09:39:48;101352.09;;;18.01;68.58
72685;BME280;61365;52.162;4.500;2022-10-16T09:42:23;101345.75;;;18.08;68.55
72685;BME280;61365;52.162;4.500;2022-10-16T09:45:01;101353.63;;;18.11;68.76
72685;BME280;61365;52.162;4.500;2022-10-16T09:47:28;101355.06;;;18.25;67.43
72685;BME280;61365;52.162;4.500;2022-10-16T09:50:15;101355.78;;;17.94;69.79
72685;BME280;61365;52.162;4.500;2022-10-16T09:52:47;101355.06;;;17.87;68.13
72685;BME280;61365;52.162;4.500;2022-10-16T09:55:16;101352.66;;;17.35;66.56
72685;BME280;61365;52.162;4.500;2022-10-16T09:57:51;101357.09;;;17.33;67.76
72685;BME280;61365;52.162;4.500;2022-10-16T10:00:23;101366.94;;;17.70;67.18
72685;BME280;61365;52.162;4.500;2022-10-16T10:02:50;101363.09;;;17.84;68.37
72685;BME280;61365;52.162;4.500;2022-10-16T10:05:24;101365.19;;;17.68;67.47
72685;BME280;61365;52.162;4.500;2022-10-16T10:07:56;101363.75;;;17.53;66.18
72685;BME280;61365;52.162;4.500;2022-10-16T10:10:29;101368.22;;;17.52;68.14
72685;BME280;61365;52.162;4.500;2022-10-16T10:12:57;101363.75;;;17.54;66.51
72685;BME280;61365;52.162;4.500;2022-10-16T10:15:25;101367.25;;;17.55;66.37
72685;BME280;61365;52.162;4.500;2022-10-16T10:17:59;101374.59;;;17.42;67.15
72685;BME280;61365;52.162;4.500;2022-10-16T10:20:35;101387.94;;;17.81;67.92
72685;BME280;61365;52.162;4.500;2022-10-16T10:23:20;101381.53;;;17.90;65.01
72685;BME280;61365;52.162;4.500;2022-10-16T10:31:32;101401.00;;;17.91;64.01
72685;BME280;61365;52.162;4.500;2022-10-16T10:34:36;101401.31;;;18.16;63.76
72685;BME280;61365;52.162;4.500;2022-10-16T10:40:45;101413.19;;;18.01;64.29
72685;BME280;61365;52.162;4.500;2022-10-16T10:45:46;101417.19;;;18.19;61.49
72685;BME280;61365;52.162;4.500;2022-10-16T10:51:49;101422.16;;;17.94;60.23
72685;BME280;61365;52.162;4.500;2022-10-16T10:54:25;101415.84;;;17.59;60.75
72685;BME280;61365;52.162;4.500;2022-10-16T10:57:10;101416.25;;;17.81;58.86
72685;BME280;61365;52.162;4.500;2022-10-16T10:59:51;101424.59;;;17.64;60.82
72685;BME280;61365;52.162;4.500;2022-10-16T11:08:19;101424.13;;;17.85;59.98
72685;BME280;61365;52.162;4.500;2022-10-16T11:10:50;101431.91;;;17.93;60.32
72685;BME280;61365;52.162;4.500;2022-10-16T11:13:30;101435.72;;;17.80;59.24
72685;BME280;61365;52.162;4.500;2022-10-16T11:16:20;101439.22;;;17.83;58.61
72685;BME280;61365;52.162;4.500;2022-10-16T11:21:56;101443.44;;;17.92;60.22
72685;BME280;61365;52.162;4.500;2022-10-16T11:24:41;101441.22;;;17.72;59.45
72685;BME280;61365;52.162;4.500;2022-10-16T11:27:22;101452.16;;;17.56;59.65
72685;BME280;61365;52.162;4.500;2022-10-16T11:30:05;101456.84;;;17.42;58.43
72685;BME280;61365;52.162;4.500;2022-10-16T11:36:20;101451.22;;;17.59;61.42
72685;BME280;61365;52.162;4.500;2022-10-16T11:41:53;101444.28;;;17.94;56.03
72685;BME280;61365;52.162;4.500;2022-10-16T11:44:43;101452.50;;;17.82;59.56
72685;BME280;61365;52.162;4.500;2022-10-16T11:50:31;101451.66;;;17.80;56.18
72685;BME280;61365;52.162;4.500;2022-10-16T11:56:04;101456.03;;;17.82;57.28
72685;BME280;61365;52.162;4.500;2022-10-16T11:59:02;101474.06;;;17.66;55.55
72685;BME280;61365;52.162;4.500;2022-10-16T12:01:45;101466.69;;;17.81;56.94
72685;BME280;61365;52.162;4.500;2022-10-16T12:04:25;101471.53;;;17.62;57.21
72685;BME280;61365;52.162;4.500;2022-10-16T12:07:13;101478.06;;;17.86;55.23
72685;BME280;61365;52.162;4.500;2022-10-16T12:09:45;101477.91;;;17.94;54.56
72685;BME280;61365;52.162;4.500;2022-10-16T12:12:26;101476.06;;;18.00;55.78
72685;BME280;61365;52.162;4.500;2022-10-16T12:15:24;101478.81;;;17.93;54.93
72685;BME280;61365;52.162;4.500;2022-10-16T12:17:53;101488.34;;;17.61;56.92
72685;BME280;61365;52.162;4.500;2022-10-16T12:22:56;101486.06;;;17.40;57.93
72685;BME280;61365;52.162;4.500;2022-10-16T12:25:28;101488.50;;;17.51;58.58
72685;BME280;61365;52.162;4.500;2022-10-16T12:28:06;101491.28;;;17.89;56.28
72685;BME280;61365;52.162;4.500;2022-10-16T12:30:56;101485.31;;;17.79;59.06
72685;BME280;61365;52.162;4.500;2022-10-16T12:33:39;101485.25;;;17.82;59.26
72685;BME280;61365;52.162;4.500;2022-10-16T12:38:57;101495.34;;;17.63;55.75
72685;BME280;61365;52.162;4.500;2022-10-16T12:41:31;101490.22;;;17.54;58.54
72685;BME280;61365;52.162;4.500;2022-10-16T12:44:01;101497.16;;;17.61;58.12
72685;BME280;61365;52.162;4.500;2022-10-16T12:51:37;101488.84;;;17.34;58.42
72685;BME280;61365;52.162;4.500;2022-10-16T13:00:10;101492.44;;;17.30;59.14
72685;BME280;61365;52.162;4.500;2022-10-16T13:14:51;101506.72;;;17.24;58.56
72685;BME280;61365;52.162;4.500;2022-10-16T13:17:45;101516.31;;;17.32;58.79
72685;BME280;61365;52.162;4.500;2022-10-16T13:23:51;101527.47;;;17.51;58.13
72685;BME280;61365;52.162;4.500;2022-10-16T13:26:40;101534.63;;;17.44;57.63
72685;BME280;61365;52.162;4.500;2022-10-16T13:29:13;101534.25;;;17.64;56.42
72685;BME280;61365;52.162;4.500;2022-10-16T13:31:42;101541.16;;;17.75;57.60
72685;BME280;61365;52.162;4.500;2022-10-16T13:34:15;101541.28;;;17.68;58.53
72685;BME280;61365;52.162;4.500;2022-10-16T13:36:48;101544.19;;;17.54;57.63
72685;BME280;61365;52.162;4.500;2022-10-16T13:39:28;101550.28;;;17.60;57.26
72685;BME280;61365;52.162;4.500;2022-10-16T13:42:07;101542.91;;;17.76;55.06
72685;BME280;61365;52.162;4.500;2022-10-16T13:44:48;101546.09;;;17.46;57.25
72685;BME280;61365;52.162;4.500;2022-10-16T13:47:17;101547.91;;;17.46;58.05
72685;BME280;61365;52.162;4.500;2022-10-16T13:49:45;101542.50;;;17.50;57.89
72685;BME280;61365;52.162;4.500;2022-10-16T13:52:20;101538.28;;;17.38;56.73
72685;BME280;61365;52.162;4.500;2022-10-16T13:54:47;101544.81;;;17.67;60.41
72685;BME280;61365;52.162;4.500;2022-10-16T13:57:14;101551.16;;;18.07;56.31
72685;BME280;61365;52.162;4.500;2022-10-16T13:59:42;101554.22;;;17.85;59.61
72685;BME280;61365;52.162;4.500;2022-10-16T14:05:02;101548.38;;;17.66;59.55
72685;BME280;61365;52.162;4.500;2022-10-16T14:07:34;101534.63;;;17.91;56.67
72685;BME280;61365;52.162;4.500;2022-10-16T14:10:05;101529.91;;;18.06;57.92
72685;BME280;61365;52.162;4.500;2022-10-16T14:12:44;101537.94;;;18.04;57.78
72685;BME280;61365;52.162;4.500;2022-10-16T14:15:18;101535.22;;;18.06;60.12
72685;BME280;61365;52.162;4.500;2022-10-16T14:17:48;101532.50;;;17.63;59.95
72685;BME280;61365;52.162;4.500;2022-10-16T14:20:18;101531.00;;;17.50;61.63
72685;BME280;61365;52.162;4.500;2022-10-16T14:28:37;101546.44;;;17.28;60.37
72685;BME280;61365;52.162;4.500;2022-10-16T14:31:26;101549.22;;;17.20;62.19
72685;BME280;61365;52.162;4.500;2022-10-16T14:33:59;101548.34;;;17.21;60.81
72685;BME280;61365;52.162;4.500;2022-10-16T14:36:27;101555.50;;;17.16;60.84
72685;BME280;61365;52.162;4.500;2022-10-16T14:39:01;101551.97;;;17.14;60.60
72685;BME280;61365;52.162;4.500;2022-10-16T14:41:40;101552.31;;;16.92;62.91
72685;BME280;61365;52.162;4.500;2022-10-16T14:44:10;101544.31;;;16.96;62.10
72685;BME280;61365;52.162;4.500;2022-10-16T14:46:40;101542.28;;;17.13;62.49
72685;BME280;61365;52.162;4.500;2022-10-16T14:51:34;101542.28;;;17.14;62.49
72685;BME280;61365;52.162;4.500;2022-10-16T14:54:01;101543.13;;;17.15;63.22
72685;BME280;61365;52.162;4.500;2022-10-16T14:56:42;101545.09;;;17.02;62.08
72685;BME280;61365;52.162;4.500;2022-10-16T14:59:16;101543.28;;;17.05;63.58